Fort Raleigh City, North Carolina
Current Conditions -  °F | °C
As of 10:55 AM on Thursday 27 Nov 2014 (Local Time) from KMQI Reporting Station
Overcast Overcast  
Wind Chill: 47°   Ceiling: 9000
Heat Index: 47°   Visibility: 10mi
Dew Point: 40°   Wind: 0mph
Humidity: 77%   Direction: NA
Pressure: 30.04"   Gusts: NA
Location:  35.8834°N, 75.6616°W
Report Text: KMQI 271555Z AUTO 00000KT 10SM OVC090 08/04 A3004 RMK AO2 T00810042
Loading
Personal Weather Stations






























Interactive Weather Map New forecast layout! Learn more

10-Day Weather Forecast

Advertisements
Track Severe Weather on mobile